createdAt,value
2022-10-14T00:01:22.277Z,26.02
2022-10-14T00:03:50.127Z,27.02
2022-10-14T00:06:20.231Z,30.80
2022-10-14T00:08:49.506Z,24.35
2022-10-14T00:11:19.950Z,26.42
2022-10-14T00:13:47.000Z,28.23
2022-10-14T00:16:19.116Z,27.73
2022-10-14T00:18:46.193Z,27.92
2022-10-14T00:21:13.051Z,26.45
2022-10-14T00:23:39.535Z,26.33
2022-10-14T00:26:06.399Z,27.65
2022-10-14T00:28:33.019Z,26.00
2022-10-14T00:31:01.483Z,25.92
2022-10-14T00:33:29.001Z,23.90
2022-10-14T00:36:00.371Z,26.30
2022-10-14T00:38:27.269Z,23.90
2022-10-14T00:40:54.461Z,23.63
2022-10-14T00:43:22.963Z,27.45
2022-10-14T00:45:49.480Z,28.00
2022-10-14T00:48:17.792Z,22.15
2022-10-14T00:50:47.179Z,23.25
2022-10-14T00:53:14.619Z,26.02
2022-10-14T00:55:42.600Z,23.40
2022-10-14T00:58:10.405Z,26.30
2022-10-14T01:00:37.519Z,26.98
2022-10-14T01:03:09.396Z,25.05
2022-10-14T01:05:44.840Z,23.60
2022-10-14T01:08:22.274Z,23.75
2022-10-14T01:11:02.586Z,22.60
2022-10-14T01:16:09.387Z,24.75
2022-10-14T01:18:56.598Z,25.00
2022-10-14T01:21:32.048Z,24.67
2022-10-14T01:24:12.839Z,22.67
2022-10-14T01:27:10.293Z,21.65
2022-10-14T01:30:19.743Z,22.15
2022-10-14T01:33:08.877Z,26.50
2022-10-14T01:35:56.018Z,21.85
2022-10-14T01:38:31.939Z,22.35
2022-10-14T01:43:31.423Z,21.08
2022-10-14T01:46:01.057Z,22.55
2022-10-14T01:48:32.862Z,24.27
2022-10-14T01:51:01.986Z,22.20
2022-10-14T01:53:39.499Z,23.33
2022-10-14T01:56:07.374Z,23.23
2022-10-14T01:58:35.447Z,22.90
2022-10-14T02:01:06.590Z,23.80
2022-10-14T02:03:44.735Z,24.73
2022-10-14T02:06:36.091Z,25.92
2022-10-14T02:09:12.700Z,27.02
2022-10-14T02:12:05.445Z,24.08
2022-10-14T02:14:31.745Z,27.50
2022-10-14T02:17:11.703Z,25.35
2022-10-14T02:19:49.362Z,25.52
2022-10-14T02:22:32.125Z,24.88
2022-10-14T02:25:06.137Z,23.40
2022-10-14T02:27:34.805Z,24.33
2022-10-14T02:30:04.688Z,25.90
2022-10-14T02:32:32.322Z,26.45
2022-10-14T02:35:00.965Z,25.15
2022-10-14T02:37:29.211Z,24.65
2022-10-14T02:40:00.128Z,25.65
2022-10-14T02:42:27.889Z,25.67
2022-10-14T02:44:56.919Z,24.55
2022-10-14T02:47:24.588Z,24.98
2022-10-14T02:49:51.986Z,24.98
2022-10-14T02:52:18.892Z,27.55
2022-10-14T02:54:45.667Z,26.77
2022-10-14T02:57:12.079Z,27.77
2022-10-14T02:59:39.582Z,26.70
2022-10-14T03:02:09.880Z,25.73
2022-10-14T03:04:36.514Z,26.10
2022-10-14T03:07:03.948Z,27.05
2022-10-14T03:09:30.302Z,25.60
2022-10-14T03:11:56.632Z,25.42
2022-10-14T03:14:23.033Z,25.00
2022-10-14T03:16:49.424Z,25.70
2022-10-14T03:19:15.975Z,25.35
2022-10-14T03:21:42.299Z,25.88
2022-10-14T03:24:09.723Z,24.48
2022-10-14T03:26:36.223Z,25.52
2022-10-14T03:29:02.601Z,27.90
2022-10-14T03:31:28.918Z,25.08
2022-10-14T03:33:55.330Z,24.40
2022-10-14T03:36:21.650Z,26.05
2022-10-14T03:38:47.990Z,25.17
2022-10-14T03:41:14.332Z,24.48
2022-10-14T03:43:40.653Z,27.15
2022-10-14T03:46:06.982Z,26.98
2022-10-14T03:48:33.322Z,24.55
2022-10-14T03:50:59.646Z,27.10
2022-10-14T03:53:26.022Z,24.23
2022-10-14T03:55:52.338Z,29.60
2022-10-14T03:58:18.681Z,28.63
2022-10-14T04:00:45.033Z,26.17
2022-10-14T04:03:11.385Z,26.73
2022-10-14T04:05:37.776Z,25.80
2022-10-14T04:08:04.431Z,25.67
2022-10-14T04:10:31.096Z,24.05
2022-10-14T04:12:57.572Z,27.35
2022-10-14T04:15:24.265Z,27.98
2022-10-14T04:17:50.597Z,28.02
2022-10-14T04:20:17.437Z,24.45
2022-10-14T04:22:43.956Z,24.48
2022-10-14T04:25:10.488Z,28.75
2022-10-14T04:27:36.990Z,26.63
2022-10-14T04:30:04.636Z,29.25
2022-10-14T04:32:31.025Z,26.65
2022-10-14T04:34:57.383Z,24.17
2022-10-14T04:37:23.706Z,28.67
2022-10-14T04:39:50.495Z,27.52
2022-10-14T04:42:16.902Z,28.83
2022-10-14T04:44:43.247Z,31.00
2022-10-14T04:47:09.574Z,29.30
2022-10-14T04:49:35.905Z,29.75
2022-10-14T04:52:02.279Z,27.17
2022-10-14T04:54:28.607Z,28.05
2022-10-14T04:56:54.956Z,28.45
2022-10-14T04:59:21.365Z,27.45
2022-10-14T05:01:47.728Z,27.30
2022-10-14T05:04:14.348Z,24.73
2022-10-14T05:06:40.793Z,28.35
2022-10-14T05:09:07.183Z,29.63
2022-10-14T05:11:33.830Z,25.73
2022-10-14T05:14:00.299Z,25.58
2022-10-14T05:16:26.892Z,27.33
2022-10-14T05:18:53.285Z,28.95
2022-10-14T05:21:19.618Z,25.67
2022-10-14T05:23:45.983Z,30.85
2022-10-14T05:26:12.319Z,32.17
2022-10-14T05:28:38.728Z,29.83
2022-10-14T05:31:05.730Z,26.70
2022-10-14T05:33:32.426Z,25.50
2022-10-14T05:35:59.883Z,25.10
2022-10-14T05:38:26.718Z,29.48
2022-10-14T05:40:55.293Z,30.33
2022-10-14T05:43:22.100Z,28.55
2022-10-14T05:45:48.475Z,27.30
2022-10-14T05:48:15.170Z,29.70
2022-10-14T05:50:43.199Z,31.23
2022-10-14T05:53:10.554Z,26.63
2022-10-14T05:55:37.159Z,30.70
2022-10-14T05:58:04.101Z,28.77
2022-10-14T06:00:30.875Z,29.40
2022-10-14T06:02:58.652Z,25.48
2022-10-14T06:05:25.067Z,28.13
2022-10-14T06:07:51.493Z,30.10
2022-10-14T06:10:18.090Z,28.98
2022-10-14T06:12:44.497Z,31.30
2022-10-14T06:15:10.951Z,27.60
2022-10-14T06:17:37.335Z,29.90
2022-10-14T06:20:03.930Z,30.95
2022-10-14T06:22:30.775Z,29.00
2022-10-14T06:25:00.488Z,28.10
2022-10-14T06:27:30.286Z,32.63
2022-10-14T06:29:56.644Z,32.75
2022-10-14T06:32:23.332Z,35.40
2022-10-14T06:34:50.006Z,53.92
2022-10-14T06:37:16.328Z,42.83
2022-10-14T06:39:45.002Z,39.95
2022-10-14T06:42:13.266Z,32.55
2022-10-14T06:44:39.841Z,32.53
2022-10-14T06:47:07.143Z,31.42
2022-10-14T06:49:33.912Z,41.50
2022-10-14T06:52:00.329Z,36.70
2022-10-14T06:54:26.673Z,34.97
2022-10-14T06:56:53.006Z,37.63
2022-10-14T06:59:20.401Z,35.97
2022-10-14T07:01:46.773Z,34.95
2022-10-14T07:04:13.146Z,32.97
2022-10-14T07:06:39.533Z,35.47
2022-10-14T07:09:05.866Z,36.17
2022-10-14T07:11:32.219Z,39.25
2022-10-14T07:13:59.197Z,39.70
2022-10-14T07:16:26.435Z,38.22
2022-10-14T07:18:52.830Z,38.83
2022-10-14T07:21:19.335Z,36.58
2022-10-14T07:23:45.848Z,42.63
2022-10-14T07:26:12.183Z,40.92
2022-10-14T07:28:40.506Z,39.90
2022-10-14T07:31:09.790Z,37.78
2022-10-14T07:36:05.978Z,35.92
2022-10-14T07:38:32.850Z,39.20
2022-10-14T07:41:05.465Z,39.63
2022-10-14T07:43:33.331Z,37.83
2022-10-14T07:46:05.565Z,39.97
2022-10-14T07:48:52.192Z,39.08
2022-10-14T07:51:20.367Z,36.67
2022-10-14T07:53:49.101Z,36.78
2022-10-14T07:56:15.623Z,33.55
2022-10-14T07:58:44.506Z,34.97
2022-10-14T08:01:11.303Z,36.45
2022-10-14T08:03:37.865Z,38.80
2022-10-14T08:06:05.266Z,34.55
2022-10-14T08:08:32.411Z,35.90
2022-10-14T08:11:02.935Z,34.33
2022-10-14T08:13:30.197Z,35.10
2022-10-14T08:15:56.859Z,36.10
2022-10-14T08:18:23.487Z,35.15
2022-10-14T08:20:49.802Z,34.85
2022-10-14T08:23:19.102Z,33.35
2022-10-14T08:25:50.026Z,39.78
2022-10-14T08:28:16.475Z,32.95
2022-10-14T08:30:42.887Z,29.80
2022-10-14T08:33:09.236Z,31.27
2022-10-14T08:35:35.603Z,30.90
2022-10-14T08:38:02.052Z,30.23
2022-10-14T08:40:30.678Z,28.00
2022-10-14T08:43:01.919Z,30.55
2022-10-14T08:45:37.229Z,28.23
2022-10-14T08:48:17.645Z,30.88
2022-10-14T08:50:54.641Z,27.20
2022-10-14T08:53:28.616Z,24.02
2022-10-14T08:56:00.437Z,21.83
2022-10-14T08:58:32.003Z,22.48
2022-10-14T09:01:03.098Z,21.88
2022-10-14T09:03:34.717Z,20.30
2022-10-14T09:06:04.993Z,22.30
2022-10-14T09:08:40.513Z,17.63
2022-10-14T09:11:12.982Z,17.10
2022-10-14T09:13:42.965Z,18.75
2022-10-14T09:16:25.189Z,15.18
2022-10-14T09:19:00.851Z,14.60
2022-10-14T09:21:53.000Z,16.02
2022-10-14T09:24:23.819Z,18.33
2022-10-14T09:27:09.095Z,15.57
2022-10-14T09:29:54.132Z,11.10
2022-10-14T09:32:29.777Z,11.52
2022-10-14T09:34:57.791Z,11.80
2022-10-14T09:37:33.150Z,12.73
2022-10-14T09:39:59.441Z,10.93
2022-10-14T09:42:58.763Z,11.85
2022-10-14T09:45:27.672Z,9.15
2022-10-14T09:47:57.621Z,7.85
2022-10-14T09:50:31.286Z,12.52
2022-10-14T09:53:03.678Z,7.93
2022-10-14T09:55:31.258Z,7.70
2022-10-14T09:58:07.311Z,9.15
2022-10-14T10:00:37.596Z,5.97
2022-10-14T10:03:04.759Z,5.95
2022-10-14T10:05:33.389Z,6.13
2022-10-14T10:08:20.007Z,7.38
2022-10-14T10:11:07.167Z,5.57
2022-10-14T10:13:43.411Z,4.57
2022-10-14T10:16:31.370Z,4.70
2022-10-14T10:19:01.221Z,6.70
2022-10-14T10:21:30.123Z,4.00
2022-10-14T10:24:01.182Z,3.78
2022-10-14T10:26:32.051Z,4.10
2022-10-14T10:29:04.492Z,3.97
2022-10-14T10:31:35.762Z,5.60
2022-10-14T10:34:25.841Z,5.75
2022-10-14T10:37:00.104Z,2.35
2022-10-14T10:39:42.145Z,2.85
2022-10-14T10:42:25.337Z,3.22
2022-10-14T10:45:06.347Z,2.67
2022-10-14T10:47:37.781Z,2.15
2022-10-14T10:50:13.473Z,2.17
2022-10-14T10:52:59.571Z,2.20
2022-10-14T10:56:11.471Z,2.60
2022-10-14T10:59:03.092Z,2.78
2022-10-14T11:01:39.089Z,2.72
2022-10-14T11:04:25.839Z,2.80
2022-10-14T11:07:35.636Z,3.00
2022-10-14T11:10:24.527Z,2.47
2022-10-14T11:13:05.543Z,1.90
2022-10-14T11:15:45.505Z,2.88
2022-10-14T11:18:22.872Z,2.08
2022-10-14T11:21:07.985Z,12.75
2022-10-14T11:24:17.502Z,2.60
2022-10-14T11:26:55.776Z,2.03
2022-10-14T11:29:50.111Z,3.45
2022-10-14T11:32:38.177Z,2.80
2022-10-14T11:35:47.046Z,2.60
2022-10-14T11:38:31.881Z,2.00
2022-10-14T11:41:17.661Z,1.90
2022-10-14T11:43:51.951Z,1.80
2022-10-14T11:46:21.475Z,1.50
2022-10-14T11:48:53.845Z,1.52
2022-10-14T11:51:40.547Z,1.77
2022-10-14T11:54:16.707Z,1.73
2022-10-14T11:57:02.559Z,3.13
2022-10-14T11:59:44.880Z,1.98
2022-10-14T12:02:19.409Z,1.70
2022-10-14T12:04:54.149Z,2.00
2022-10-14T12:07:29.140Z,2.08
2022-10-14T12:10:01.588Z,2.00
2022-10-14T12:12:30.038Z,2.00
2022-10-14T12:15:05.674Z,2.10
2022-10-14T12:17:54.833Z,2.25
2022-10-14T12:20:47.819Z,2.53
2022-10-14T12:23:32.815Z,1.88
2022-10-14T12:26:30.068Z,2.72
2022-10-14T12:28:58.776Z,1.73
2022-10-14T12:31:27.815Z,1.40
2022-10-14T12:34:13.434Z,2.15
2022-10-14T12:36:42.276Z,1.60
2022-10-14T12:39:17.962Z,1.98
2022-10-14T12:41:54.170Z,3.88
2022-10-14T12:44:23.210Z,2.15
2022-10-14T12:46:53.039Z,2.20
2022-10-14T12:49:29.171Z,2.60
2022-10-14T12:52:02.668Z,1.77
2022-10-14T12:54:31.565Z,2.50
2022-10-14T12:57:28.706Z,2.85
2022-10-14T12:59:59.292Z,4.03
2022-10-14T13:02:35.837Z,2.15
2022-10-14T13:05:08.503Z,2.00
2022-10-14T13:07:41.176Z,1.70
2022-10-14T13:10:27.597Z,1.52
2022-10-14T13:12:54.049Z,2.08
2022-10-14T13:15:51.121Z,1.20
2022-10-14T13:18:34.609Z,3.42
2022-10-14T13:21:01.808Z,2.70
2022-10-14T13:23:31.062Z,2.55
2022-10-14T13:26:17.671Z,1.25
2022-10-14T13:29:09.508Z,1.48
2022-10-14T13:31:58.673Z,1.15
2022-10-14T13:34:43.435Z,1.67
2022-10-14T13:37:34.740Z,1.30
2022-10-14T13:40:17.714Z,2.03
2022-10-14T13:42:56.613Z,1.30
2022-10-14T13:45:31.935Z,1.42
2022-10-14T13:47:58.607Z,1.13
2022-10-14T13:50:32.724Z,1.83
2022-10-14T13:53:03.227Z,1.10
2022-10-14T13:55:30.663Z,1.92
2022-10-14T13:58:13.586Z,1.70
2022-10-14T14:00:45.392Z,1.13
2022-10-14T14:03:23.695Z,6.10
2022-10-14T14:05:51.150Z,1.58
2022-10-14T14:08:40.294Z,1.10
2022-10-14T14:11:16.834Z,1.45
2022-10-14T14:13:59.012Z,1.08
2022-10-14T14:16:33.271Z,2.45
2022-10-14T14:19:14.848Z,1.10
2022-10-14T14:21:41.266Z,2.15
2022-10-14T14:24:16.610Z,2.78
2022-10-14T14:26:43.943Z,1.00
2022-10-14T14:29:19.494Z,0.80
2022-10-14T14:32:06.052Z,1.40
2022-10-14T14:34:35.916Z,1.20
2022-10-14T14:37:16.604Z,0.80
2022-10-14T14:40:03.291Z,1.67
2022-10-14T14:42:39.431Z,1.50
2022-10-14T14:45:17.905Z,2.85
2022-10-14T14:47:44.778Z,1.48
2022-10-14T14:50:29.863Z,1.75
2022-10-14T14:53:03.469Z,1.57
2022-10-14T14:55:56.824Z,2.40
2022-10-14T14:58:29.093Z,1.60
2022-10-14T15:00:55.840Z,3.78
2022-10-14T15:03:26.086Z,3.10
2022-10-14T15:06:02.257Z,2.28
2022-10-14T15:08:35.951Z,1.48
2022-10-14T15:11:02.604Z,1.52
2022-10-14T15:13:32.517Z,2.65
2022-10-14T15:15:59.447Z,1.42
2022-10-14T15:18:28.209Z,1.30
2022-10-14T15:21:09.727Z,11.90
2022-10-14T15:23:48.183Z,2.67
2022-10-14T15:26:35.855Z,2.05
2022-10-14T15:29:22.437Z,2.58
2022-10-14T15:32:04.023Z,1.45
2022-10-14T15:34:30.880Z,1.50
2022-10-14T15:36:57.271Z,3.97
2022-10-14T15:39:23.710Z,6.18
2022-10-14T15:41:50.054Z,3.55
2022-10-14T15:44:16.507Z,3.13
2022-10-14T15:47:03.056Z,2.40
2022-10-14T15:49:42.050Z,4.00
2022-10-14T15:52:13.863Z,3.65
2022-10-14T15:54:40.191Z,5.78
2022-10-14T15:57:07.101Z,4.93
2022-10-14T15:59:34.610Z,5.57
2022-10-14T16:02:01.343Z,4.25
2022-10-14T16:04:29.045Z,4.38
2022-10-14T16:06:56.714Z,4.75
2022-10-14T16:09:25.050Z,3.45
2022-10-14T16:11:57.278Z,4.97
2022-10-14T16:14:25.331Z,4.13
2022-10-14T16:16:51.703Z,3.85
2022-10-14T16:19:18.721Z,5.65
2022-10-14T16:21:45.295Z,6.10
2022-10-14T16:24:18.829Z,4.68
2022-10-14T16:26:45.196Z,6.28
2022-10-14T16:29:11.530Z,6.25
2022-10-14T16:31:38.868Z,6.03
2022-10-14T16:34:05.216Z,4.75
2022-10-14T16:36:31.807Z,5.63
2022-10-14T16:38:58.182Z,4.68
2022-10-14T16:41:25.017Z,6.63
2022-10-14T16:43:51.352Z,4.80
2022-10-14T16:46:17.687Z,4.72
2022-10-14T16:48:44.633Z,4.43
2022-10-14T16:51:11.094Z,5.82
2022-10-14T16:53:40.469Z,5.07
2022-10-14T16:56:33.667Z,3.67
2022-10-14T16:59:00.867Z,3.50
2022-10-14T17:01:28.149Z,3.92
2022-10-14T17:03:56.426Z,3.55
2022-10-14T17:06:24.320Z,4.03
2022-10-14T17:08:51.257Z,3.80
2022-10-14T17:11:18.208Z,4.45
2022-10-14T17:13:44.560Z,4.22
2022-10-14T17:16:11.150Z,4.10
2022-10-14T17:18:37.885Z,4.25
2022-10-14T17:21:10.588Z,4.18
2022-10-14T17:23:40.207Z,4.70
2022-10-14T17:26:06.998Z,5.03
2022-10-14T17:28:33.497Z,4.75
2022-10-14T17:31:01.301Z,4.57
2022-10-14T17:33:27.895Z,5.43
2022-10-14T17:35:59.244Z,4.63
2022-10-14T17:38:27.707Z,5.10
2022-10-14T17:41:06.095Z,5.10
2022-10-14T17:43:32.850Z,6.05
2022-10-14T17:48:35.081Z,5.97
2022-10-14T17:51:02.213Z,6.20
2022-10-14T17:53:28.875Z,7.28
2022-10-14T17:55:57.762Z,7.63
2022-10-14T17:58:24.278Z,7.20
2022-10-14T18:00:51.439Z,7.07
2022-10-14T18:03:18.566Z,7.38
2022-10-14T18:05:48.143Z,7.35
2022-10-14T18:08:15.447Z,7.53
2022-10-14T18:10:41.870Z,8.45
2022-10-14T18:13:08.182Z,7.07
2022-10-14T18:15:34.604Z,7.35
2022-10-14T18:18:01.198Z,7.47
2022-10-14T18:20:27.721Z,7.85
2022-10-14T18:22:54.182Z,7.55
2022-10-14T18:25:21.049Z,7.80
2022-10-14T18:27:47.522Z,7.93
2022-10-14T18:30:14.137Z,7.95
2022-10-14T18:32:40.538Z,9.05
2022-10-14T18:35:07.002Z,8.55
2022-10-14T18:37:33.467Z,8.27
2022-10-14T18:40:00.022Z,9.80
2022-10-14T18:42:26.871Z,8.23
2022-10-14T18:44:53.652Z,7.97
2022-10-14T18:47:19.983Z,8.13
2022-10-14T18:49:48.272Z,8.50
2022-10-14T18:52:14.661Z,7.70
2022-10-14T18:54:41.031Z,7.85
2022-10-14T18:57:07.479Z,7.80
2022-10-14T18:59:35.653Z,7.85
2022-10-14T19:02:02.308Z,7.70
2022-10-14T19:04:28.720Z,7.97
2022-10-14T19:06:55.166Z,7.28
2022-10-14T19:09:24.544Z,7.40
2022-10-14T19:11:52.089Z,7.57
2022-10-14T19:14:18.482Z,7.15
2022-10-14T19:16:47.345Z,6.30
2022-10-14T19:19:16.766Z,7.32
2022-10-14T19:21:44.641Z,5.22
2022-10-14T19:24:12.767Z,6.63
2022-10-14T19:26:43.024Z,6.68
2022-10-14T19:29:12.116Z,7.57
2022-10-14T19:31:39.642Z,6.47
2022-10-14T19:34:08.150Z,6.72
2022-10-14T19:36:36.785Z,7.10
2022-10-14T19:39:05.248Z,6.57
2022-10-14T19:41:34.040Z,8.45
2022-10-14T19:44:01.244Z,8.70
2022-10-14T19:46:29.209Z,7.35
2022-10-14T19:48:58.460Z,7.22
2022-10-14T19:51:25.950Z,7.65
2022-10-14T19:53:54.926Z,7.90
2022-10-14T19:56:22.311Z,8.40
2022-10-14T19:58:54.378Z,9.05
2022-10-14T20:01:23.727Z,8.82
2022-10-14T20:03:50.247Z,8.95
2022-10-14T20:06:16.691Z,9.93
2022-10-14T20:08:45.144Z,9.65
2022-10-14T20:11:17.159Z,10.65
2022-10-14T20:13:44.119Z,10.48
2022-10-14T20:16:11.767Z,10.95
2022-10-14T20:18:38.283Z,10.18
2022-10-14T20:21:06.926Z,12.10
2022-10-14T20:23:35.109Z,10.80
2022-10-14T20:26:03.955Z,12.02
2022-10-14T20:28:30.707Z,10.82
2022-10-14T20:30:57.467Z,12.63
2022-10-14T20:33:24.589Z,11.63
2022-10-14T20:36:01.757Z,12.75
2022-10-14T20:38:28.568Z,14.27
2022-10-14T20:40:55.033Z,12.60
2022-10-14T20:43:21.469Z,11.55
2022-10-14T20:45:47.839Z,11.88
2022-10-14T20:48:14.409Z,14.93
2022-10-14T20:50:41.918Z,13.25
2022-10-14T20:53:08.402Z,10.57
2022-10-14T20:55:34.731Z,11.60
2022-10-14T20:58:01.128Z,10.95
2022-10-14T21:00:27.767Z,10.95
2022-10-14T21:02:54.148Z,10.88
2022-10-14T21:05:20.564Z,13.02
2022-10-14T21:07:46.939Z,11.95
2022-10-14T21:10:13.292Z,12.27
2022-10-14T21:12:39.734Z,12.57
2022-10-14T21:15:06.641Z,11.68
2022-10-14T21:17:33.042Z,11.80
2022-10-14T21:19:59.409Z,11.68
2022-10-14T21:22:25.982Z,11.88
2022-10-14T21:24:52.595Z,13.32
2022-10-14T21:27:18.966Z,12.38
2022-10-14T21:29:47.909Z,12.23
2022-10-14T21:32:14.304Z,13.02
2022-10-14T21:34:40.691Z,12.65
2022-10-14T21:37:07.077Z,12.52
2022-10-14T21:39:33.488Z,11.25
2022-10-14T21:42:00.049Z,12.00
2022-10-14T21:44:26.479Z,14.20
2022-10-14T21:46:52.879Z,13.82
2022-10-14T21:49:19.304Z,13.55
2022-10-14T21:51:45.638Z,12.57
2022-10-14T21:54:12.711Z,13.82
2022-10-14T21:56:39.317Z,15.95
2022-10-14T21:59:06.264Z,12.93
2022-10-14T22:01:32.867Z,13.68
2022-10-14T22:04:03.564Z,12.57
2022-10-14T22:06:31.160Z,12.93
2022-10-14T22:09:00.096Z,14.68
2022-10-14T22:11:35.115Z,13.80
2022-10-14T22:14:03.494Z,14.20
2022-10-14T22:16:30.728Z,17.30
2022-10-14T22:19:02.503Z,15.50
2022-10-14T22:21:31.158Z,19.85
2022-10-14T22:23:58.857Z,15.77
2022-10-14T22:26:27.346Z,19.95
2022-10-14T22:28:59.165Z,15.57
2022-10-14T22:31:26.620Z,17.40
2022-10-14T22:33:53.101Z,16.63
2022-10-14T22:36:24.018Z,19.95
2022-10-14T22:38:52.312Z,18.92
2022-10-14T22:41:19.656Z,20.50
2022-10-14T22:43:51.666Z,24.50
2022-10-14T22:46:20.724Z,20.55
2022-10-14T22:48:48.723Z,19.15
2022-10-14T22:51:18.357Z,18.83
2022-10-14T22:53:46.181Z,20.65
2022-10-14T22:56:16.609Z,19.88
2022-10-14T22:58:43.038Z,21.17
2022-10-14T23:01:15.222Z,20.73
2022-10-14T23:03:42.533Z,21.05
2022-10-14T23:06:12.207Z,22.45
2022-10-14T23:08:39.419Z,20.10
2022-10-14T23:11:06.307Z,20.23
2022-10-14T23:13:33.749Z,21.63
2022-10-14T23:16:02.548Z,17.58
2022-10-14T23:18:31.612Z,18.77
2022-10-14T23:20:58.055Z,22.73
2022-10-14T23:23:24.751Z,20.15
2022-10-14T23:25:51.096Z,21.42
2022-10-14T23:28:17.467Z,20.60
2022-10-14T23:30:43.876Z,21.42
2022-10-14T23:33:11.734Z,20.90
2022-10-14T23:35:38.851Z,20.70
2022-10-14T23:38:05.422Z,21.15
2022-10-14T23:40:31.847Z,24.38
2022-10-14T23:42:58.307Z,23.00
2022-10-14T23:45:24.719Z,28.67
2022-10-14T23:47:51.247Z,27.80
2022-10-14T23:50:17.760Z,25.42
2022-10-14T23:52:45.786Z,23.75
2022-10-14T23:55:13.578Z,25.48
2022-10-14T23:57:40.423Z,26.52
